Time;durP1;ratioP1;P1;durP2;ratioP2;P2;SDS_P1;SDS_P2;PMS_P1;PMS_P2;Temp;Humidity;BMP_temperature;BMP_pressure;BME280_temperature;BME280_humidity;BME280_pressure;Samples;Min_cycle;Max_cycle;Signal;HPM_P1;HPM_P2
2023/10/15 00:00:16;;;;;;;7.40;2.92;;;;;;;7.20;100.00;101720.69;5049285;28;20028;-72
2023/10/15 00:02:42;;;;;;;9.98;3.13;;;;;;;7.18;100.00;101714.69;5049149;28;20075;-72
2023/10/15 00:05:22;;;;;;;8.60;2.92;;;;;;;7.32;100.00;101720.44;5049244;28;20174;-72
2023/10/15 00:07:49;;;;;;;8.00;3.40;;;;;;;7.36;100.00;101721.78;5050976;28;20044;-72
2023/10/15 00:10:25;;;;;;;9.05;3.58;;;;;;;7.42;100.00;101739.78;5052942;28;20037;-72
2023/10/15 00:12:52;;;;;;;5.40;3.42;;;;;;;7.44;100.00;101749.25;5052892;28;20064;-72
2023/10/15 00:15:19;;;;;;;11.23;3.63;;;;;;;7.47;100.00;101751.59;5034714;28;20641;-72
2023/10/15 00:17:50;;;;;;;5.47;2.80;;;;;;;7.52;100.00;101747.63;5052827;28;20051;-72
2023/10/15 00:20:17;;;;;;;11.38;3.42;;;;;;;7.58;100.00;101760.28;5052722;28;20029;-72
2023/10/15 00:22:47;;;;;;;9.95;3.67;;;;;;;7.63;100.00;101760.66;5052740;28;20040;-72
2023/10/15 00:25:14;;;;;;;5.45;2.92;;;;;;;7.67;100.00;101760.19;5052652;28;20021;-72
2023/10/15 00:27:44;;;;;;;12.15;3.38;;;;;;;7.73;100.00;101765.84;5052625;28;20066;-72
2023/10/15 00:30:13;;;;;;;9.52;3.10;;;;;;;7.74;100.00;101764.88;5052366;28;20537;-72
2023/10/15 00:32:45;;;;;;;5.90;3.20;;;;;;;7.80;100.00;101765.09;5052512;28;20037;-72
2023/10/15 00:35:13;;;;;;;9.55;4.60;;;;;;;7.83;100.00;101761.28;5052305;28;20078;-72
2023/10/15 00:37:40;;;;;;;10.80;2.90;;;;;;;7.84;100.00;101757.66;5052429;28;20491;-72
2023/10/15 00:40:17;;;;;;;8.63;3.53;;;;;;;7.87;100.00;101757.34;5052489;28;20498;-72
2023/10/15 00:42:46;;;;;;;9.02;2.90;;;;;;;7.84;100.00;101753.16;5052373;28;20190;-72
2023/10/15 00:45:19;;;;;;;8.55;2.80;;;;;;;7.89;100.00;101755.38;5034139;28;20029;-72
2023/10/15 00:47:53;;;;;;;6.88;3.10;;;;;;;7.90;100.00;101749.88;5034576;28;20067;-72
2023/10/15 00:50:20;;;;;;;4.63;2.70;;;;;;;7.87;100.00;101746.72;5034173;28;20052;-72
2023/10/15 00:52:48;;;;;;;6.25;2.83;;;;;;;7.87;100.00;101746.72;5052246;28;20029;-72
2023/10/15 00:55:19;;;;;;;7.15;3.08;;;;;;;7.88;100.00;101737.75;5052179;28;20029;-72
2023/10/15 00:57:46;;;;;;;7.63;2.90;;;;;;;7.87;100.00;101733.44;5052174;28;20031;-72
2023/10/15 01:02:57;;;;;;;7.55;3.00;;;;;;;7.80;100.00;101727.09;5051951;28;20060;-72
2023/10/15 01:05:25;;;;;;;8.05;2.95;;;;;;;7.86;100.00;101732.63;5052006;28;20051;-72
2023/10/15 01:07:54;;;;;;;9.18;3.42;;;;;;;7.87;100.00;101733.44;5051820;28;20053;-72
2023/10/15 01:10:31;;;;;;;6.72;2.70;;;;;;;7.89;100.00;101721.66;5051781;28;20080;-72
2023/10/15 01:12:57;;;;;;;9.85;2.60;;;;;;;7.87;100.00;101722.81;5051725;28;20117;-72
2023/10/15 01:15:22;;;;;;;7.38;2.88;;;;;;;7.88;100.00;101735.91;5051539;28;20473;-72
2023/10/15 01:17:53;;;;;;;10.35;3.13;;;;;;;7.89;100.00;101748.22;5051507;28;20025;-72
2023/10/15 01:20:24;;;;;;;9.10;3.90;;;;;;;7.90;100.00;101728.63;5051666;28;20136;-72
2023/10/15 01:22:50;;;;;;;7.88;2.67;;;;;;;7.87;100.00;101741.41;5051662;28;20078;-72
2023/10/15 01:25:24;;;;;;;8.98;2.88;;;;;;;7.74;100.00;101725.06;5051664;28;20480;-72
2023/10/15 01:27:54;;;;;;;12.95;3.05;;;;;;;7.66;100.00;101744.44;5051379;28;20047;-72
2023/10/15 01:30:20;;;;;;;7.15;2.75;;;;;;;7.55;100.00;101742.03;5051267;28;20049;-72
2023/10/15 01:32:45;;;;;;;6.93;2.33;;;;;;;7.55;100.00;101742.03;5051379;28;20098;-72
2023/10/15 01:35:11;;;;;;;13.65;3.17;;;;;;;7.55;100.00;101724.28;5033468;28;20470;-72
2023/10/15 01:37:37;;;;;;;10.38;2.95;;;;;;;7.50;100.00;101704.50;5051346;28;20087;-72
2023/10/15 01:40:44;;;;;;;8.70;3.72;;;;;;;7.57;100.00;101722.31;5051213;28;20044;-72
2023/10/15 01:42:54;;;;;;;6.60;3.63;;;;;;;7.62;100.00;101735.09;5042818;28;20076;-72
2023/10/15 01:45:31;;;;;;;8.77;3.10;;;;;;;7.61;100.00;101755.50;5033060;28;20037;-72
2023/10/15 01:48:12;;;;;;;4.70;2.78;;;;;;;7.60;100.00;101755.66;5051006;28;20029;-72
2023/10/15 01:50:45;;;;;;;4.38;2.58;;;;;;;7.51;100.00;101746.78;5050989;28;20146;-72
2023/10/15 01:53:11;;;;;;;7.43;2.78;;;;;;;7.49;100.00;101745.28;5070217;28;20056;-72
2023/10/15 01:55:37;;;;;;;6.35;3.40;;;;;;;7.49;100.00;101743.44;5070165;28;20451;-72
2023/10/15 01:58:06;;;;;;;9.13;3.78;;;;;;;7.49;100.00;101754.06;5052331;28;20033;-72
2023/10/15 02:03:07;;;;;;;5.53;2.95;;;;;;;7.47;100.00;101738.31;5069836;28;20115;-72
2023/10/15 02:05:42;;;;;;;6.47;2.88;;;;;;;7.39;100.00;101729.47;5069810;28;20028;-71
2023/10/15 02:08:23;;;;;;;7.47;2.75;;;;;;;7.37;100.00;101732.25;5051919;28;20074;-72
2023/10/15 02:10:48;;;;;;;5.95;2.55;;;;;;;7.38;100.00;101731.25;5050518;28;20504;-72
2023/10/15 02:13:17;;;;;;;4.38;2.55;;;;;;;7.39;100.00;101713.53;5050737;28;20032;-72
2023/10/15 02:15:44;;;;;;;8.32;2.30;;;;;;;7.38;100.00;101718.00;5050326;28;20063;-72
2023/10/15 02:18:19;;;;;;;6.75;2.72;;;;;;;7.38;100.00;101711.88;5050401;28;20035;-72
2023/10/15 02:21:00;;;;;;;6.80;2.67;;;;;;;7.35;100.00;101707.69;5050352;28;20029;-71
2023/10/15 02:23:26;;;;;;;5.35;2.00;;;;;;;7.33;100.00;101712.31;5050415;28;20079;-71
2023/10/15 02:26:00;;;;;;;7.13;2.50;;;;;;;7.29;100.00;101705.66;5032355;28;20057;-71
2023/10/15 02:28:27;;;;;;;4.70;2.08;;;;;;;7.30;100.00;101709.97;5050279;28;20396;-71
2023/10/15 02:33:29;;;;;;;5.18;1.77;;;;;;;7.17;100.00;101714.84;5050349;28;20107;-71
2023/10/15 02:35:58;;;;;;;6.53;2.20;;;;;;;7.12;100.00;101720.59;5032369;28;20045;-71
2023/10/15 02:38:26;;;;;;;4.88;2.00;;;;;;;7.09;100.00;101715.59;5050137;28;20033;-72
2023/10/15 02:41:03;;;;;;;8.38;4.43;;;;;;;7.06;100.00;101725.69;5050155;28;20039;-71
2023/10/15 02:43:30;;;;;;;4.15;2.03;;;;;;;6.96;100.00;101736.38;5050208;28;20051;-71
2023/10/15 02:46:00;;;;;;;8.70;3.30;;;;;;;6.85;100.00;101753.34;5049939;28;20052;-72
2023/10/15 02:48:26;;;;;;;4.70;2.35;;;;;;;6.82;100.00;101793.41;5049984;28;20021;-72
2023/10/15 02:51:03;;;;;;;6.13;3.22;;;;;;;6.83;100.00;101810.16;5049917;28;20029;-72
2023/10/15 02:53:38;;;;;;;6.40;3.38;;;;;;;6.52;100.00;101791.88;5049868;28;20693;-72
2023/10/15 02:56:13;;;;;;;5.88;3.38;;;;;;;6.15;100.00;101801.50;5050080;28;20029;-72
2023/10/15 02:58:40;;;;;;;3.33;1.85;;;;;;;5.97;100.00;101805.03;5031935;28;20025;-71
2023/10/15 03:01:19;;;;;;;4.13;1.88;;;;;;;5.82;100.00;101797.53;5049993;28;20476;-71
2023/10/15 03:03:52;;;;;;;3.97;1.38;;;;;;;5.69;100.00;101787.25;5049720;28;20045;-71
2023/10/15 03:06:27;;;;;;;2.42;1.60;;;;;;;5.57;100.00;101777.78;5049822;28;20033;-71
2023/10/15 03:08:53;;;;;;;4.68;1.55;;;;;;;5.45;100.00;101766.53;5049598;28;20111;-71
2023/10/15 03:11:21;;;;;;;3.85;1.17;;;;;;;5.52;100.00;101772.06;5063507;28;20116;-71
2023/10/15 03:14:00;;;;;;;2.03;1.20;;;;;;;5.52;100.00;101766.78;5068726;28;20032;-71
2023/10/15 03:16:30;;;;;;;4.05;1.13;;;;;;;5.59;100.00;101767.06;5069260;28;20038;-71
2023/10/15 03:18:56;;;;;;;6.53;2.05;;;;;;;5.66;100.00;101757.59;5049379;28;20039;-71
2023/10/15 03:21:25;;;;;;;3.15;1.73;;;;;;;5.70;100.00;101749.19;5049808;28;20484;-71
2023/10/15 03:23:55;;;;;;;2.67;1.60;;;;;;;5.73;100.00;101756.03;5049712;28;20061;-71
2023/10/15 03:26:22;;;;;;;3.85;1.33;;;;;;;5.75;100.00;101758.53;5049604;28;20495;-71
2023/10/15 03:28:51;;;;;;;10.27;1.15;;;;;;;5.83;100.00;101775.38;5049504;28;20434;-71
2023/10/15 03:31:17;;;;;;;2.70;1.33;;;;;;;5.86;100.00;101780.38;5049526;28;20024;-71
2023/10/15 03:33:59;;;;;;;3.65;1.88;;;;;;;5.89;100.00;101768.66;5049398;28;20040;-71
2023/10/15 03:36:25;;;;;;;0.95;0.88;;;;;;;5.91;100.00;101764.88;5049565;28;20037;-71
2023/10/15 03:38:50;;;;;;;2.63;0.80;;;;;;;5.89;100.00;101755.41;5049319;28;20058;-71
2023/10/15 03:41:21;;;;;;;3.08;1.20;;;;;;;5.90;100.00;101760.59;5049458;28;20094;-71
2023/10/15 03:43:48;;;;;;;1.63;1.10;;;;;;;5.91;100.00;101770.19;5053023;28;20037;-71
2023/10/15 03:46:19;;;;;;;1.60;0.98;;;;;;;5.89;100.00;101772.16;5053647;28;20037;-71
2023/10/15 03:48:48;;;;;;;5.05;1.17;;;;;;;5.93;100.00;101776.22;5053280;28;20033;-71
2023/10/15 03:51:19;;;;;;;1.88;1.52;;;;;;;5.95;100.00;101780.50;5035656;28;20037;-71
2023/10/15 03:53:49;;;;;;;;;;;;;;;5.94;100.00;101787.63;5035760;28;20025;-71
2023/10/15 03:56:18;;;;;;;1.50;1.33;;;;;;;5.85;100.00;101786.66;5036053;28;19920;-72
2023/10/15 03:58:43;;;;;;;2.33;1.00;;;;;;;5.84;100.00;101776.19;5053234;28;20367;-71
2023/10/15 04:01:16;;;;;;;2.58;1.00;;;;;;;5.87;100.00;101784.72;5053306;28;20025;-71
2023/10/15 04:03:43;;;;;;;3.20;1.25;;;;;;;5.88;100.00;101793.47;5052752;28;20132;-71
2023/10/15 04:06:09;;;;;;;1.45;1.10;;;;;;;5.90;100.00;101791.53;5052991;28;20052;-71
2023/10/15 04:08:37;;;;;;;3.83;1.38;;;;;;;5.91;100.00;101786.06;5034997;28;20029;-71
2023/10/15 04:11:03;;;;;;;4.80;1.50;;;;;;;5.96;100.00;101775.09;5052931;28;20029;-71
2023/10/15 04:13:29;;;;;;;1.63;1.27;;;;;;;5.95;100.00;101761.97;5052779;28;20029;-71
2023/10/15 04:15:56;;;;;;;2.80;1.40;;;;;;;5.96;100.00;101751.25;5052810;28;20052;-71
2023/10/15 04:18:24;;;;;;;3.05;1.40;;;;;;;6.02;100.00;101755.97;5052766;28;20048;-71
2023/10/15 04:20:54;;;;;;;2.40;1.20;;;;;;;5.97;100.00;101760.03;5052618;28;20166;-71
2023/10/15 04:23:34;;;;;;;2.38;1.13;;;;;;;5.99;100.00;101777.44;5052785;28;20428;-71
2023/10/15 04:26:12;;;;;;;3.63;1.30;;;;;;;5.89;100.00;101764.22;5052635;28;20028;-71
2023/10/15 04:28:40;;;;;;;3.60;1.25;;;;;;;6.00;100.00;101770.34;5052380;28;20137;-71
2023/10/15 04:31:11;;;;;;;5.00;1.45;;;;;;;5.99;100.00;101781.91;5052613;28;20043;-71
2023/10/15 04:33:41;;;;;;;2.97;1.10;;;;;;;6.01;100.00;101779.97;5052470;28;20040;-71
2023/10/15 04:36:09;;;;;;;6.53;1.58;;;;;;;5.99;100.00;101769.50;5052482;28;20037;-70
2023/10/15 04:38:35;;;;;;;1.08;0.98;;;;;;;5.99;100.00;101766.03;5052541;28;20028;-71
2023/10/15 04:41:03;;;;;;;2.13;1.40;;;;;;;6.04;100.00;101788.44;5052428;28;20037;-71
2023/10/15 04:43:29;;;;;;;6.80;1.70;;;;;;;6.01;100.00;101786.09;5052354;28;20059;-71
2023/10/15 04:45:56;;;;;;;5.05;1.63;;;;;;;5.95;100.00;101780.50;5052088;28;20476;-71
2023/10/15 04:48:36;;;;;;;1.85;1.40;;;;;;;5.99;100.00;101795.16;5051981;28;20107;-71
2023/10/15 04:51:11;;;;;;;4.85;2.38;;;;;;;6.00;100.00;101799.47;5052152;28;20029;-71
2023/10/15 04:53:36;;;;;;;2.67;1.65;;;;;;;6.03;100.00;101799.19;5051758;28;20020;-71
2023/10/15 04:56:04;;;;;;;4.28;2.33;;;;;;;6.04;100.00;101795.56;5052021;28;20468;-71
2023/10/15 04:58:29;;;;;;;2.03;1.65;;;;;;;6.08;100.00;101784.53;5052014;28;20029;-71
2023/10/15 05:00:59;;;;;;;3.78;2.13;;;;;;;6.11;100.00;101792.19;5051875;28;20021;-71
2023/10/15 05:03:24;;;;;;;2.97;1.88;;;;;;;6.10;100.00;101784.38;5051831;28;20514;-71
2023/10/15 05:05:51;;;;;;;1.90;1.60;;;;;;;6.09;100.00;101786.19;5033717;28;20037;-71
2023/10/15 05:08:17;;;;;;;4.30;1.75;;;;;;;6.11;100.00;101783.41;5033986;28;20033;-71
2023/10/15 05:10:50;;;;;;;4.15;2.20;;;;;;;6.02;100.00;101765.72;5051644;28;20035;-71
2023/10/15 05:13:16;;;;;;;4.55;1.45;;;;;;;5.99;100.00;101766.03;5051682;28;20113;-71
2023/10/15 05:15:44;;;;;;;3.08;1.75;;;;;;;5.98;100.00;101767.84;5051352;28;20036;-71
2023/10/15 05:18:10;;;;;;;3.03;1.67;;;;;;;5.96;100.00;101768.97;5051407;28;20495;-71
2023/10/15 05:20:38;;;;;;;2.45;2.20;;;;;;;5.91;100.00;101775.47;5051465;28;20075;-71
2023/10/15 05:23:04;;;;;;;2.13;1.75;;;;;;;5.91;100.00;101774.66;5033542;28;20036;-71
2023/10/15 05:25:30;;;;;;;2.75;1.90;;;;;;;5.87;100.00;101775.94;5051375;28;20483;-71
2023/10/15 05:27:55;;;;;;;3.13;1.88;;;;;;;5.85;100.00;101772.59;5033175;28;20090;-71
2023/10/15 05:30:21;;;;;;;3.65;1.67;;;;;;;5.79;100.00;101765.19;5051071;28;20108;-71
2023/10/15 05:32:49;;;;;;;3.55;1.85;;;;;;;5.66;100.00;101754.94;5051377;28;20060;-71
2023/10/15 05:35:17;;;;;;;2.63;1.90;;;;;;;5.78;100.00;101768.84;5033334;28;20874;-71
2023/10/15 05:37:44;;;;;;;2.33;1.73;;;;;;;5.79;100.00;101770.50;5051041;28;20032;-71
2023/10/15 05:40:12;;;;;;;3.75;2.00;;;;;;;5.79;100.00;101775.78;5051248;28;20029;-71
2023/10/15 05:42:37;;;;;;;2.75;1.85;;;;;;;5.82;100.00;101786.94;5051152;28;20071;-71
2023/10/15 05:45:06;;;;;;;4.68;2.10;;;;;;;5.84;100.00;101789.44;5051052;28;20068;-71
2023/10/15 05:47:34;;;;;;;8.35;2.78;;;;;;;5.77;100.00;101785.69;5050747;28;20037;-71
2023/10/15 05:49:59;;;;;;;4.85;2.03;;;;;;;5.86;100.00;101800.72;5050783;28;20060;-71
2023/10/15 05:52:25;;;;;;;4.30;2.22;;;;;;;5.84;100.00;101789.44;5050696;28;20114;-70
2023/10/15 05:54:53;;;;;;;4.70;2.10;;;;;;;5.91;100.00;101793.19;5050841;28;20048;-70
2023/10/15 05:57:21;;;;;;;4.32;2.10;;;;;;;5.95;100.00;101793.75;5050982;28;20162;-70
2023/10/15 05:59:47;;;;;;;3.53;2.78;;;;;;;5.98;100.00;101802.28;5050727;28;20040;-71
2023/10/15 06:02:13;;;;;;;5.22;2.72;;;;;;;6.01;100.00;101809.09;5032750;28;20369;-71
2023/10/15 06:04:38;;;;;;;4.20;2.35;;;;;;;6.03;100.00;101817.72;5049090;28;20064;-71
2023/10/15 06:07:05;;;;;;;5.57;2.80;;;;;;;6.04;100.00;101816.75;5031657;28;20151;-71
2023/10/15 06:09:31;;;;;;;6.32;2.90;;;;;;;6.02;100.00;101824.81;5049571;28;20028;-71
2023/10/15 06:11:57;;;;;;;3.28;2.15;;;;;;;6.03;100.00;101821.22;5068645;28;20036;-71
2023/10/15 06:14:23;;;;;;;3.67;2.10;;;;;;;6.04;100.00;101817.56;5068789;28;20024;-71
2023/10/15 06:16:52;;;;;;;3.45;1.70;;;;;;;6.07;100.00;101825.22;5051391;28;20495;-71
2023/10/15 06:19:18;;;;;;;3.13;2.00;;;;;;;6.06;100.00;101826.22;5051584;28;20028;-71
2023/10/15 06:21:44;;;;;;;1.70;1.20;;;;;;;6.07;100.00;101832.34;5069029;28;20036;-71
2023/10/15 06:24:10;;;;;;;3.55;1.35;;;;;;;6.06;100.00;101836.81;5069536;28;20028;-71
2023/10/15 06:26:36;;;;;;;1.38;1.25;;;;;;;6.07;100.00;101848.22;5069255;28;20043;-71
2023/10/15 06:29:01;;;;;;;6.35;1.80;;;;;;;6.07;100.00;101850.88;5069319;28;20040;-71
2023/10/15 06:31:28;;;;;;;3.75;1.45;;;;;;;6.07;100.00;101850.88;5068488;28;20036;-70
2023/10/15 06:33:55;;;;;;;1.73;1.10;;;;;;;6.14;100.00;101855.47;5069223;28;20479;-70
2023/10/15 06:36:21;;;;;;;1.05;0.90;;;;;;;6.15;100.00;101846.53;5069128;28;20043;-70
2023/10/15 06:38:46;;;;;;;2.80;1.00;;;;;;;6.21;100.00;101836.34;5068583;28;20029;-71
2023/10/15 06:41:11;;;;;;;6.28;2.25;;;;;;;6.23;100.00;101824.63;5068345;28;20043;-71
2023/10/15 06:43:37;;;;;;;3.80;1.35;;;;;;;6.31;100.00;101822.13;5051316;28;20029;-71
2023/10/15 06:46:07;;;;;;;2.15;0.82;;;;;;;6.33;100.00;101814.84;5068677;28;20036;-71
2023/10/15 06:48:33;;;;;;;2.67;0.93;;;;;;;6.39;100.00;101829.31;5068801;28;20439;-71
2023/10/15 06:51:02;;;;;;;4.20;1.30;;;;;;;6.39;100.00;101834.59;5068836;28;20480;-71
2023/10/15 06:53:28;;;;;;;1.00;0.90;;;;;;;6.35;100.00;101849.97;5068840;28;20047;-71
2023/10/15 06:55:53;;;;;;;1.67;0.85;;;;;;;6.37;100.00;101863.09;5050983;28;20537;-71
2023/10/15 06:58:18;;;;;;;2.90;0.75;;;;;;;6.40;100.00;101883.16;5068838;28;20488;-71
2023/10/15 07:00:45;;;;;;;1.20;0.80;;;;;;;6.40;100.00;101880.50;5051051;28;20055;-71
2023/10/15 07:03:10;;;;;;;2.00;0.98;;;;;;;6.35;100.00;101879.13;5068812;28;20048;-71
2023/10/15 07:05:36;;;;;;;1.77;0.90;;;;;;;6.34;100.00;101881.91;5068829;28;20332;-71
2023/10/15 07:08:02;;;;;;;1.48;0.93;;;;;;;6.32;100.00;101882.06;5068784;28;20387;-71
2023/10/15 07:10:27;;;;;;;4.50;1.27;;;;;;;6.36;100.00;101882.59;5050494;28;20060;-71
2023/10/15 07:12:54;;;;;;;2.55;0.90;;;;;;;6.41;100.00;101885.66;5050739;28;20043;-71
2023/10/15 07:15:20;;;;;;;2.35;0.90;;;;;;;6.48;100.00;101886.75;5068609;28;20020;-71
2023/10/15 07:17:47;;;;;;;1.42;0.80;;;;;;;6.51;100.00;101890.94;5068780;28;20032;-71
2023/10/15 07:20:18;;;;;;;3.05;1.05;;;;;;;6.51;100.00;101899.72;5049397;28;20020;-71
2023/10/15 07:22:46;;;;;;;4.68;0.60;;;;;;;6.58;100.00;101908.78;5032353;28;20758;-71
2023/10/15 07:25:13;;;;;;;2.63;0.90;;;;;;;6.62;100.00;101906.66;5031703;28;20369;-71
2023/10/15 07:27:42;;;;;;;4.65;1.48;;;;;;;6.67;100.00;101915.00;5049554;28;20371;-71
2023/10/15 07:30:12;;;;;;;3.72;1.30;;;;;;;6.70;100.00;101908.59;5031313;28;20044;-71
2023/10/15 07:32:40;;;;;;;2.28;1.30;;;;;;;6.76;100.00;101911.50;5049570;28;20395;-71
2023/10/15 07:35:07;;;;;;;2.40;0.95;;;;;;;6.82;100.00;101919.84;5049346;28;20029;-75
2023/10/15 07:37:34;;;;;;;4.45;1.00;;;;;;;6.87;100.00;101931.69;5059754;28;20101;-70
2023/10/15 07:40:05;;;;;;;3.08;1.38;;;;;;;6.91;100.00;101926.91;5050133;28;20033;-69
2023/10/15 07:42:34;;;;;;;4.32;1.17;;;;;;;6.90;100.00;101926.09;5031367;28;20031;-68
2023/10/15 07:45:00;;;;;;;4.13;1.50;;;;;;;6.93;100.00;101933.75;5030505;28;20099;-68
2023/10/15 07:47:26;;;;;;;6.03;1.27;;;;;;;7.07;100.00;101939.56;5031136;28;20071;-70
2023/10/15 07:49:52;;;;;;;3.25;1.38;;;;;;;7.14;100.00;101935.34;5067992;28;20044;-69
2023/10/15 07:52:17;;;;;;;3.35;1.08;;;;;;;7.14;100.00;101935.34;5068350;28;20487;-69
2023/10/15 07:54:43;;;;;;;2.92;1.08;;;;;;;7.22;100.00;101952.19;5050195;28;20077;-69
2023/10/15 07:57:10;;;;;;;4.85;1.25;;;;;;;7.26;100.00;101942.13;5068423;28;20031;-72
2023/10/15 07:59:36;;;;;;;2.33;0.82;;;;;;;7.23;100.00;101939.75;5068151;28;20526;-70
2023/10/15 08:02:03;;;;;;;4.47;1.40;;;;;;;7.30;100.00;101929.38;5046821;28;20114;-73
2023/10/15 08:04:29;;;;;;;4.20;2.17;;;;;;;7.37;100.00;101919.84;5047035;28;20053;-69
2023/10/15 08:06:55;;;;;;;3.22;1.10;;;;;;;7.42;100.00;101930.88;5047169;28;20129;-68
2023/10/15 08:09:21;;;;;;;1.67;1.00;;;;;;;7.45;100.00;101933.22;5046803;28;20164;-70
2023/10/15 08:11:47;;;;;;;1.90;1.00;;;;;;;7.43;100.00;101928.03;5049845;28;20029;-71
2023/10/15 08:14:12;;;;;;;4.68;1.60;;;;;;;7.47;100.00;101942.69;5062488;28;20029;-71
2023/10/15 08:16:38;;;;;;;3.30;1.00;;;;;;;7.42;100.00;101931.69;5020531;28;20029;-70
2023/10/15 08:19:04;;;;;;;3.42;1.00;;;;;;;7.57;100.00;101939.13;5056830;28;20487;-70
2023/10/15 08:21:30;;;;;;;3.47;1.20;;;;;;;7.62;100.00;101926.25;5053441;28;20109;-70
2023/10/15 08:23:55;;;;;;;3.05;1.15;;;;;;;7.74;100.00;101954.25;5067028;28;20476;-70
2023/10/15 08:26:21;;;;;;;2.38;1.10;;;;;;;7.76;100.00;101956.78;5055114;28;20464;-70
2023/10/15 08:28:48;;;;;;;2.92;0.95;;;;;;;7.63;100.00;101944.69;5065257;28;20037;-70
2023/10/15 08:31:14;;;;;;;1.23;0.98;;;;;;;7.59;100.00;101961.88;5066459;28;20020;-70
2023/10/15 08:33:39;;;;;;;2.65;1.05;;;;;;;7.73;100.00;101979.16;5069481;28;20024;-70
2023/10/15 08:36:05;;;;;;;4.07;1.48;;;;;;;7.93;100.00;101992.28;5053148;28;20056;-70
2023/10/15 08:38:30;;;;;;;4.38;1.08;;;;;;;8.22;100.00;101992.88;5064260;28;20102;-70
2023/10/15 08:40:58;;;;;;;2.22;0.90;;;;;;;8.34;100.00;101999.63;5071565;28;20056;-70
2023/10/15 08:43:27;;;;;;;3.55;1.00;;;;;;;8.24;100.00;102009.50;5071379;28;20039;-70
2023/10/15 08:45:53;;;;;;;3.72;1.08;;;;;;;8.21;100.00;102038.22;5063342;28;20051;-70
2023/10/15 08:48:19;;;;;;;2.17;1.00;;;;;;;8.10;100.00;102047.25;5071122;28;20064;-71
2023/10/15 08:50:46;;;;;;;2.78;1.00;;;;;;;7.80;100.00;102022.69;5053148;28;20032;-71
2023/10/15 08:53:13;;;;;;;3.92;1.50;;;;;;;7.82;100.00;102041.97;5063512;28;20413;-70
2023/10/15 08:55:41;;;;;;;1.48;0.80;;;;;;;7.72;100.00;102043.00;5051897;28;20403;-70
2023/10/15 08:58:09;;;;;;;2.67;1.05;;;;;;;7.66;100.00;102052.41;5051791;28;20032;-71
2023/10/15 09:00:36;;;;;;;3.50;0.90;;;;;;;7.67;100.00;102054.06;5051861;28;20033;-70
2023/10/15 09:03:03;;;;;;;3.05;0.90;;;;;;;7.72;100.00;102067.75;5051699;28;20083;-70
2023/10/15 09:05:33;;;;;;;2.28;1.08;;;;;;;7.77;100.00;102062.81;5051658;28;20108;-70
2023/10/15 09:08:07;;;;;;;1.55;0.70;;;;;;;7.71;100.00;102039.53;5051541;28;20542;-70
2023/10/15 09:10:35;;;;;;;2.53;0.95;;;;;;;7.61;100.00;102017.50;5051704;28;20422;-70
2023/10/15 09:13:00;;;;;;;3.90;1.85;;;;;;;7.81;100.00;102052.75;5051714;28;20028;-70
2023/10/15 09:15:29;;;;;;;3.08;0.88;;;;;;;7.85;100.00;102052.28;5051635;28;20044;-70
2023/10/15 09:17:59;;;;;;;5.57;1.67;;;;;;;8.00;100.00;102055.28;5052081;28;20217;-68
2023/10/15 09:20:32;;;;;;;0.60;0.50;;;;;;;8.10;100.00;102065.84;5070846;28;20025;-66
2023/10/15 09:22:59;;;;;;;0.65;0.52;;;;;;;8.08;100.00;102070.47;5058692;28;20124;-70
2023/10/15 09:25:26;;;;;;;2.08;0.98;;;;;;;7.99;100.00;102071.38;5047155;28;20036;-71
2023/10/15 09:27:55;;;;;;;2.60;1.10;;;;;;;7.93;100.00;102067.50;5048786;28;20029;-71
2023/10/15 09:30:30;;;;;;;4.78;0.77;;;;;;;8.01;100.00;102058.78;5051188;28;20384;-71
2023/10/15 09:32:57;;;;;;;1.73;0.70;;;;;;;8.01;100.00;102040.19;5051280;28;20029;-71
2023/10/15 09:35:23;;;;;;;3.67;0.77;;;;;;;8.45;100.00;102070.38;5033392;28;20025;-71
2023/10/15 09:37:49;;;;;;;3.15;0.80;;;;;;;8.55;100.00;102076.44;5059914;28;20029;-71
2023/10/15 09:40:21;;;;;;;2.15;0.47;;;;;;;8.56;100.00;102066.63;5049587;28;20564;-71
2023/10/15 09:42:52;;;;;;;;;;;;;;;8.75;100.00;102074.47;5051457;28;20559;-71
2023/10/15 09:45:18;;;;;;;;;;;;;;;8.78;100.00;102081.28;5033448;28;19947;-72
2023/10/15 09:47:49;;;;;;;3.47;0.80;;;;;;;8.65;100.00;102097.66;5032817;28;19917;-72
2023/10/15 09:50:25;;;;;;;3.85;1.02;;;;;;;8.54;100.00;102101.38;5063695;28;20028;-72
2023/10/15 09:52:57;;;;;;;3.00;0.90;;;;;;;8.61;100.00;102095.44;5069866;28;20046;-72
2023/10/15 09:55:27;;;;;;;4.78;0.70;;;;;;;8.66;100.00;102106.44;5052107;28;20426;-72
2023/10/15 09:57:55;;;;;;;1.90;0.75;;;;;;;8.70;100.00;102105.16;5069802;28;20135;-72
2023/10/15 10:03:38;;;;;;;2.05;0.70;;;;;;;8.76;100.00;102115.19;5069775;28;20067;-74
2023/10/15 10:06:12;;;;;;;6.97;0.80;;;;;;;8.81;100.00;102115.56;5034552;28;20467;-73
2023/10/15 10:08:43;;;;;;;1.63;0.80;;;;;;;8.87;100.00;102119.44;5059734;28;20479;-74
2023/10/15 10:11:38;;;;;;;2.15;0.90;;;;;;;8.93;100.00;102121.47;5042869;28;20059;-74
2023/10/15 10:14:13;;;;;;;1.92;0.93;;;;;;;9.03;100.00;102138.16;5061637;28;20029;-74
2023/10/15 10:16:41;;;;;;;3.33;0.82;;;;;;;9.10;100.00;102115.28;5058485;28;20028;-74
2023/10/15 10:19:08;;;;;;;4.88;1.13;;;;;;;9.26;100.00;102132.34;5037692;28;20059;-74
2023/10/15 10:21:34;;;;;;;1.88;0.93;;;;;;;9.29;100.00;102138.19;5059778;28;20034;-74
2023/10/15 10:24:02;;;;;;;2.75;1.30;;;;;;;9.30;100.00;102144.34;5069511;28;20024;-74
2023/10/15 10:26:32;;;;;;;3.67;0.70;;;;;;;9.30;100.00;102152.34;5047736;28;20088;-74
2023/10/15 10:28:59;;;;;;;2.75;0.85;;;;;;;9.29;100.00;102148.84;5062723;28;20021;-74
2023/10/15 10:31:26;;;;;;;2.33;0.88;;;;;;;9.09;100.00;102142.91;5057842;28;20024;-74
2023/10/15 10:33:54;;;;;;;0.47;0.43;;;;;;;9.12;100.00;102155.06;5042430;28;20032;-74
2023/10/15 10:36:27;;;;;;;1.30;0.60;;;;;;;9.11;100.00;102153.38;5061373;28;20422;-73
2023/10/15 10:39:08;;;;;;;2.83;1.48;;;;;;;9.11;100.00;102159.53;5055591;28;20160;-70
2023/10/15 10:41:38;;;;;;;3.50;0.93;;;;;;;9.04;100.00;102160.28;5054618;28;20025;-70
2023/10/15 10:44:05;;;;;;;1.75;0.75;;;;;;;8.87;100.00;102157.50;5034438;28;20020;-73
2023/10/15 10:46:40;;;;;;;3.38;0.82;;;;;;;8.83;100.00;102157.94;5055150;28;20521;-70
2023/10/15 10:49:17;;;;;;;3.85;1.08;;;;;;;8.91;100.00;102156.22;5052347;28;20044;-70
2023/10/15 10:52:15;;;;;;;1.55;0.70;;;;;;;9.03;100.00;102153.31;5046409;28;20029;-73
2023/10/15 10:54:41;;;;;;;2.92;0.70;;;;;;;9.06;100.00;102145.00;5043813;28;20131;-74
2023/10/15 10:57:07;;;;;;;3.08;0.68;;;;;;;9.06;100.00;102148.50;5061909;28;20039;-71
2023/10/15 10:59:34;;;;;;;2.40;0.80;;;;;;;9.07;100.00;102154.69;5066133;28;20032;-72
2023/10/15 11:02:00;;;;;;;3.30;0.93;;;;;;;9.09;100.00;102148.22;5066090;28;20370;-70
2023/10/15 11:04:26;;;;;;;2.25;0.65;;;;;;;9.04;100.00;102141.66;5064827;28;20059;-71
2023/10/15 11:06:51;;;;;;;2.40;0.75;;;;;;;9.11;100.00;102150.72;5057422;28;20039;-70
2023/10/15 11:09:19;;;;;;;4.57;0.60;;;;;;;9.05;100.00;102130.03;5059800;28;20468;-74
2023/10/15 11:11:46;;;;;;;3.45;0.90;;;;;;;9.28;100.00;102144.53;5022835;28;20036;-70
2023/10/15 11:14:12;;;;;;;1.00;0.90;;;;;;;9.28;100.00;102141.84;5059458;28;20078;-74
2023/10/15 11:16:47;;;;;;;2.08;0.75;;;;;;;9.15;100.00;102141.44;5060072;28;20065;-73
2023/10/15 11:19:30;;;;;;;1.85;1.10;;;;;;;9.23;100.00;102149.47;5017740;28;20155;-71
2023/10/15 11:21:56;;;;;;;4.13;1.00;;;;;;;9.38;100.00;102142.59;5046194;28;20046;-70
2023/10/15 11:24:24;;;;;;;1.85;0.93;;;;;;;9.57;100.00;102146.84;5046436;28;20029;-71
2023/10/15 11:26:50;;;;;;;1.33;1.00;;;;;;;9.74;100.00;102157.59;5054475;28;20033;-69
2023/10/15 11:29:21;;;;;;;5.82;1.35;;;;;;;9.74;100.00;102153.09;5045958;28;20049;-69
2023/10/15 11:31:49;;;;;;;2.65;1.10;;;;;;;9.90;100.00;102170.16;5046423;28;20029;-71
2023/10/15 11:34:17;;;;;;;1.38;0.77;;;;;;;9.94;100.00;102163.53;5046248;28;20025;-73
2023/10/15 11:36:43;;;;;;;2.65;1.25;;;;;;;9.95;100.00;102162.53;5046014;28;20059;-73
2023/10/15 11:39:18;;;;;;;6.70;1.10;;;;;;;10.07;100.00;102172.75;5046318;28;20116;-72
2023/10/15 11:41:56;;;;;;;1.60;1.02;;;;;;;10.08;100.00;102165.56;5027780;28;20040;-73
2023/10/15 11:44:26;;;;;;;1.65;0.70;;;;;;;10.13;100.00;102162.44;5065446;28;20032;-72